sensor_id;sensor_type;location;lat;lon;timestamp;temperature;humidity
10344;DHT22;5217;43.960;10.954;2023-03-15T00:00:15;16.50;99.90
10344;DHT22;5217;43.960;10.954;2023-03-15T00:02:44;16.50;99.90
10344;DHT22;5217;43.960;10.954;2023-03-15T00:05:12;16.50;99.90
10344;DHT22;5217;43.960;10.954;2023-03-15T00:07:42;16.40;99.90
10344;DHT22;5217;43.960;10.954;2023-03-15T00:10:11;16.40;99.90
10344;DHT22;5217;43.960;10.954;2023-03-15T00:12:39;16.30;99.90
10344;DHT22;5217;43.960;10.954;2023-03-15T00:15:12;16.40;99.90
10344;DHT22;5217;43.960;10.954;2023-03-15T00:17:42;16.30;99.90
10344;DHT22;5217;43.960;10.954;2023-03-15T00:20:12;16.30;99.90
10344;DHT22;5217;43.960;10.954;2023-03-15T00:22:43;16.30;99.90
10344;DHT22;5217;43.960;10.954;2023-03-15T00:25:12;16.30;99.90
10344;DHT22;5217;43.960;10.954;2023-03-15T00:27:41;16.20;99.90
10344;DHT22;5217;43.960;10.954;2023-03-15T00:30:11;16.20;99.90
10344;DHT22;5217;43.960;10.954;2023-03-15T00:32:39;16.20;99.90
10344;DHT22;5217;43.960;10.954;2023-03-15T00:35:09;16.20;99.90
10344;DHT22;5217;43.960;10.954;2023-03-15T00:37:39;16.20;99.90
10344;DHT22;5217;43.960;10.954;2023-03-15T00:40:10;16.20;99.90
10344;DHT22;5217;43.960;10.954;2023-03-15T00:42:39;16.10;99.90
10344;DHT22;5217;43.960;10.954;2023-03-15T00:45:08;16.10;99.90
10344;DHT22;5217;43.960;10.954;2023-03-15T00:47:36;16.10;99.90
10344;DHT22;5217;43.960;10.954;2023-03-15T00:50:05;16.10;99.90
10344;DHT22;5217;43.960;10.954;2023-03-15T00:52:34;16.10;99.90
10344;DHT22;5217;43.960;10.954;2023-03-15T00:55:03;16.10;99.90
10344;DHT22;5217;43.960;10.954;2023-03-15T00:57:33;16.10;99.90
10344;DHT22;5217;43.960;10.954;2023-03-15T01:00:02;16.10;99.90
10344;DHT22;5217;43.960;10.954;2023-03-15T01:02:32;16.00;99.90
10344;DHT22;5217;43.960;10.954;2023-03-15T01:05:00;16.00;99.90
10344;DHT22;5217;43.960;10.954;2023-03-15T01:07:29;16.00;99.90
10344;DHT22;5217;43.960;10.954;2023-03-15T01:09:59;16.00;99.90
10344;DHT22;5217;43.960;10.954;2023-03-15T01:12:29;16.00;99.90
10344;DHT22;5217;43.960;10.954;2023-03-15T01:15:00;15.90;99.90
10344;DHT22;5217;43.960;10.954;2023-03-15T01:17:29;15.90;99.90
10344;DHT22;5217;43.960;10.954;2023-03-15T01:19:58;15.90;99.90
10344;DHT22;5217;43.960;10.954;2023-03-15T01:22:26;15.90;99.90
10344;DHT22;5217;43.960;10.954;2023-03-15T01:24:55;15.90;99.90
10344;DHT22;5217;43.960;10.954;2023-03-15T01:27:23;15.90;99.90
10344;DHT22;5217;43.960;10.954;2023-03-15T01:29:52;15.80;99.90
10344;DHT22;5217;43.960;10.954;2023-03-15T01:32:22;15.80;99.90
10344;DHT22;5217;43.960;10.954;2023-03-15T01:34:50;15.80;99.90
10344;DHT22;5217;43.960;10.954;2023-03-15T01:37:18;15.70;99.90
10344;DHT22;5217;43.960;10.954;2023-03-15T01:39:50;15.80;99.90
10344;DHT22;5217;43.960;10.954;2023-03-15T01:42:19;15.70;99.90
10344;DHT22;5217;43.960;10.954;2023-03-15T01:44:50;15.70;99.90
10344;DHT22;5217;43.960;10.954;2023-03-15T01:47:19;15.80;99.90
10344;DHT22;5217;43.960;10.954;2023-03-15T01:49:53;15.70;99.90
10344;DHT22;5217;43.960;10.954;2023-03-15T01:52:24;15.70;99.90
10344;DHT22;5217;43.960;10.954;2023-03-15T01:54:56;15.70;99.90
10344;DHT22;5217;43.960;10.954;2023-03-15T01:57:30;15.70;99.90
10344;DHT22;5217;43.960;10.954;2023-03-15T02:00:05;15.70;99.90
10344;DHT22;5217;43.960;10.954;2023-03-15T02:02:39;15.70;99.90
10344;DHT22;5217;43.960;10.954;2023-03-15T02:05:18;15.60;99.90
10344;DHT22;5217;43.960;10.954;2023-03-15T02:07:47;15.60;99.90
10344;DHT22;5217;43.960;10.954;2023-03-15T02:10:19;15.60;99.90
10344;DHT22;5217;43.960;10.954;2023-03-15T02:12:51;15.60;99.90
10344;DHT22;5217;43.960;10.954;2023-03-15T02:15:21;15.60;99.90
10344;DHT22;5217;43.960;10.954;2023-03-15T02:17:49;15.60;99.90
10344;DHT22;5217;43.960;10.954;2023-03-15T02:20:27;15.50;99.90
10344;DHT22;5217;43.960;10.954;2023-03-15T02:22:59;15.50;99.90
10344;DHT22;5217;43.960;10.954;2023-03-15T02:25:37;15.50;99.90
10344;DHT22;5217;43.960;10.954;2023-03-15T02:28:10;15.50;99.90
10344;DHT22;5217;43.960;10.954;2023-03-15T02:30:40;15.50;99.90
10344;DHT22;5217;43.960;10.954;2023-03-15T02:33:14;15.40;99.90
10344;DHT22;5217;43.960;10.954;2023-03-15T02:35:44;15.40;99.90
10344;DHT22;5217;43.960;10.954;2023-03-15T02:38:13;15.40;99.90
10344;DHT22;5217;43.960;10.954;2023-03-15T02:40:43;15.30;99.90
10344;DHT22;5217;43.960;10.954;2023-03-15T02:43:16;15.30;99.90
10344;DHT22;5217;43.960;10.954;2023-03-15T02:45:46;15.40;99.90
10344;DHT22;5217;43.960;10.954;2023-03-15T02:48:16;15.30;99.90
10344;DHT22;5217;43.960;10.954;2023-03-15T02:50:45;15.30;99.90
10344;DHT22;5217;43.960;10.954;2023-03-15T02:53:14;15.30;99.90
10344;DHT22;5217;43.960;10.954;2023-03-15T02:55:43;15.20;99.90
10344;DHT22;5217;43.960;10.954;2023-03-15T02:58:11;15.30;99.90
10344;DHT22;5217;43.960;10.954;2023-03-15T03:00:41;15.20;99.90
10344;DHT22;5217;43.960;10.954;2023-03-15T03:03:10;15.20;99.90
10344;DHT22;5217;43.960;10.954;2023-03-15T03:05:39;15.20;99.90
10344;DHT22;5217;43.960;10.954;2023-03-15T03:08:07;15.20;99.90
10344;DHT22;5217;43.960;10.954;2023-03-15T03:10:36;15.20;99.90
10344;DHT22;5217;43.960;10.954;2023-03-15T03:13:04;15.10;99.90
10344;DHT22;5217;43.960;10.954;2023-03-15T03:15:33;15.10;99.90
10344;DHT22;5217;43.960;10.954;2023-03-15T03:18:03;15.10;99.90
10344;DHT22;5217;43.960;10.954;2023-03-15T03:20:32;15.10;99.90
10344;DHT22;5217;43.960;10.954;2023-03-15T03:23:00;15.00;99.90
10344;DHT22;5217;43.960;10.954;2023-03-15T03:25:32;15.00;99.90
10344;DHT22;5217;43.960;10.954;2023-03-15T03:28:02;15.00;99.90
10344;DHT22;5217;43.960;10.954;2023-03-15T03:30:33;15.00;99.90
10344;DHT22;5217;43.960;10.954;2023-03-15T03:33:03;14.90;99.80
10344;DHT22;5217;43.960;10.954;2023-03-15T03:35:32;14.90;99.60
10344;DHT22;5217;43.960;10.954;2023-03-15T03:38:01;15.00;99.70
10344;DHT22;5217;43.960;10.954;2023-03-15T03:40:29;14.90;99.60
10344;DHT22;5217;43.960;10.954;2023-03-15T03:42:58;14.90;99.60
10344;DHT22;5217;43.960;10.954;2023-03-15T03:45:26;14.90;99.40
10344;DHT22;5217;43.960;10.954;2023-03-15T03:47:55;14.90;99.40
10344;DHT22;5217;43.960;10.954;2023-03-15T03:50:25;14.90;99.40
10344;DHT22;5217;43.960;10.954;2023-03-15T03:52:55;14.90;99.40
10344;DHT22;5217;43.960;10.954;2023-03-15T03:55:23;14.80;99.20
10344;DHT22;5217;43.960;10.954;2023-03-15T03:57:52;14.80;99.20
10344;DHT22;5217;43.960;10.954;2023-03-15T04:00:20;14.80;99.10
10344;DHT22;5217;43.960;10.954;2023-03-15T04:02:48;14.80;99.10
10344;DHT22;5217;43.960;10.954;2023-03-15T04:05:20;14.80;99.10
10344;DHT22;5217;43.960;10.954;2023-03-15T04:07:50;14.70;98.90
10344;DHT22;5217;43.960;10.954;2023-03-15T04:10:18;14.70;98.90
10344;DHT22;5217;43.960;10.954;2023-03-15T04:12:53;14.70;98.90
10344;DHT22;5217;43.960;10.954;2023-03-15T04:15:22;14.70;98.70
10344;DHT22;5217;43.960;10.954;2023-03-15T04:17:51;14.70;98.70
10344;DHT22;5217;43.960;10.954;2023-03-15T04:20:22;14.60;98.70
10344;DHT22;5217;43.960;10.954;2023-03-15T04:22:52;14.60;98.60
10344;DHT22;5217;43.960;10.954;2023-03-15T04:25:21;14.60;98.60
10344;DHT22;5217;43.960;10.954;2023-03-15T04:27:52;14.60;98.60
10344;DHT22;5217;43.960;10.954;2023-03-15T04:30:25;14.60;98.60
10344;DHT22;5217;43.960;10.954;2023-03-15T04:32:54;14.60;98.40
10344;DHT22;5217;43.960;10.954;2023-03-15T04:35:25;14.60;98.30
10344;DHT22;5217;43.960;10.954;2023-03-15T04:37:55;14.60;98.10
10344;DHT22;5217;43.960;10.954;2023-03-15T04:40:24;14.50;97.90
10344;DHT22;5217;43.960;10.954;2023-03-15T04:42:53;14.50;97.80
10344;DHT22;5217;43.960;10.954;2023-03-15T04:45:22;14.50;97.70
10344;DHT22;5217;43.960;10.954;2023-03-15T04:47:52;14.50;97.70
10344;DHT22;5217;43.960;10.954;2023-03-15T04:50:21;14.50;97.80
10344;DHT22;5217;43.960;10.954;2023-03-15T04:52:49;14.50;97.70
10344;DHT22;5217;43.960;10.954;2023-03-15T04:55:19;14.50;97.60
10344;DHT22;5217;43.960;10.954;2023-03-15T04:57:48;14.40;97.50
10344;DHT22;5217;43.960;10.954;2023-03-15T05:00:17;14.40;97.40
10344;DHT22;5217;43.960;10.954;2023-03-15T05:02:45;14.40;97.30
10344;DHT22;5217;43.960;10.954;2023-03-15T05:05:21;14.40;97.30
10344;DHT22;5217;43.960;10.954;2023-03-15T05:07:50;14.40;97.30
10344;DHT22;5217;43.960;10.954;2023-03-15T05:10:20;14.30;97.00
10344;DHT22;5217;43.960;10.954;2023-03-15T05:12:48;14.30;97.10
10344;DHT22;5217;43.960;10.954;2023-03-15T05:15:17;14.30;97.20
10344;DHT22;5217;43.960;10.954;2023-03-15T05:17:45;14.30;97.20
10344;DHT22;5217;43.960;10.954;2023-03-15T05:20:15;14.30;97.20
10344;DHT22;5217;43.960;10.954;2023-03-15T05:22:43;14.30;97.10
10344;DHT22;5217;43.960;10.954;2023-03-15T05:25:12;14.30;97.00
10344;DHT22;5217;43.960;10.954;2023-03-15T05:27:42;14.30;97.10
10344;DHT22;5217;43.960;10.954;2023-03-15T05:30:12;14.20;97.10
10344;DHT22;5217;43.960;10.954;2023-03-15T05:32:42;14.20;97.10
10344;DHT22;5217;43.960;10.954;2023-03-15T05:35:12;14.20;97.10
10344;DHT22;5217;43.960;10.954;2023-03-15T05:37:41;14.20;97.20
10344;DHT22;5217;43.960;10.954;2023-03-15T05:40:10;14.20;97.10
10344;DHT22;5217;43.960;10.954;2023-03-15T05:42:38;14.20;97.10
10344;DHT22;5217;43.960;10.954;2023-03-15T05:45:09;14.20;97.20
10344;DHT22;5217;43.960;10.954;2023-03-15T05:47:38;14.20;97.20
10344;DHT22;5217;43.960;10.954;2023-03-15T05:50:07;14.10;97.10
10344;DHT22;5217;43.960;10.954;2023-03-15T05:52:35;14.10;97.10
10344;DHT22;5217;43.960;10.954;2023-03-15T05:55:04;14.20;97.30
10344;DHT22;5217;43.960;10.954;2023-03-15T05:57:33;14.20;97.40
10344;DHT22;5217;43.960;10.954;2023-03-15T06:00:01;14.10;97.40
10344;DHT22;5217;43.960;10.954;2023-03-15T06:02:34;14.10;97.50
10344;DHT22;5217;43.960;10.954;2023-03-15T06:05:03;14.10;97.50
10344;DHT22;5217;43.960;10.954;2023-03-15T06:07:31;14.10;97.50
10344;DHT22;5217;43.960;10.954;2023-03-15T06:09:59;14.10;97.50
10344;DHT22;5217;43.960;10.954;2023-03-15T06:12:28;14.10;97.40
10344;DHT22;5217;43.960;10.954;2023-03-15T06:14:56;14.10;97.50
10344;DHT22;5217;43.960;10.954;2023-03-15T06:17:24;14.10;97.50
10344;DHT22;5217;43.960;10.954;2023-03-15T06:19:54;14.10;97.50
10344;DHT22;5217;43.960;10.954;2023-03-15T06:22:23;14.10;97.70
10344;DHT22;5217;43.960;10.954;2023-03-15T06:24:51;14.10;97.60
10344;DHT22;5217;43.960;10.954;2023-03-15T06:27:19;14.00;97.60
10344;DHT22;5217;43.960;10.954;2023-03-15T06:29:48;14.10;97.70
10344;DHT22;5217;43.960;10.954;2023-03-15T06:32:16;14.10;97.80
10344;DHT22;5217;43.960;10.954;2023-03-15T06:34:45;14.10;97.80
10344;DHT22;5217;43.960;10.954;2023-03-15T06:37:14;14.00;97.80
10344;DHT22;5217;43.960;10.954;2023-03-15T06:39:58;14.10;97.80
10344;DHT22;5217;43.960;10.954;2023-03-15T06:42:27;14.10;97.80
10344;DHT22;5217;43.960;10.954;2023-03-15T06:44:55;14.10;97.90
10344;DHT22;5217;43.960;10.954;2023-03-15T06:47:24;14.10;98.00
10344;DHT22;5217;43.960;10.954;2023-03-15T06:49:52;14.10;98.00
10344;DHT22;5217;43.960;10.954;2023-03-15T06:52:24;14.00;98.10
10344;DHT22;5217;43.960;10.954;2023-03-15T06:54:52;14.10;98.30
10344;DHT22;5217;43.960;10.954;2023-03-15T06:57:21;14.10;98.30
10344;DHT22;5217;43.960;10.954;2023-03-15T06:59:49;14.10;98.30
10344;DHT22;5217;43.960;10.954;2023-03-15T07:02:19;14.10;98.40
10344;DHT22;5217;43.960;10.954;2023-03-15T07:04:48;14.10;98.60
10344;DHT22;5217;43.960;10.954;2023-03-15T07:07:16;14.10;98.80
10344;DHT22;5217;43.960;10.954;2023-03-15T07:09:46;14.10;99.00
10344;DHT22;5217;43.960;10.954;2023-03-15T07:12:14;14.10;99.20
10344;DHT22;5217;43.960;10.954;2023-03-15T07:14:43;14.10;99.30
10344;DHT22;5217;43.960;10.954;2023-03-15T07:17:12;14.20;99.80
10344;DHT22;5217;43.960;10.954;2023-03-15T07:19:41;14.20;99.90
10344;DHT22;5217;43.960;10.954;2023-03-15T07:22:22;14.20;99.90
10344;DHT22;5217;43.960;10.954;2023-03-15T07:24:52;14.30;99.90
10344;DHT22;5217;43.960;10.954;2023-03-15T07:27:21;14.30;99.90
10344;DHT22;5217;43.960;10.954;2023-03-15T07:29:49;14.40;99.90
10344;DHT22;5217;43.960;10.954;2023-03-15T07:32:18;14.50;99.90
10344;DHT22;5217;43.960;10.954;2023-03-15T07:34:46;14.50;99.90
10344;DHT22;5217;43.960;10.954;2023-03-15T07:37:15;14.60;99.90
10344;DHT22;5217;43.960;10.954;2023-03-15T07:39:44;14.60;99.90
10344;DHT22;5217;43.960;10.954;2023-03-15T07:42:14;14.70;99.90
10344;DHT22;5217;43.960;10.954;2023-03-15T07:44:42;14.70;99.90
10344;DHT22;5217;43.960;10.954;2023-03-15T07:47:11;14.80;99.90
10344;DHT22;5217;43.960;10.954;2023-03-15T07:49:39;14.80;99.90
10344;DHT22;5217;43.960;10.954;2023-03-15T07:52:08;14.90;99.90
10344;DHT22;5217;43.960;10.954;2023-03-15T07:54:37;14.90;99.90
10344;DHT22;5217;43.960;10.954;2023-03-15T07:57:06;14.90;99.90
10344;DHT22;5217;43.960;10.954;2023-03-15T07:59:35;14.90;99.90
10344;DHT22;5217;43.960;10.954;2023-03-15T08:02:04;15.00;99.90
10344;DHT22;5217;43.960;10.954;2023-03-15T08:04:32;15.00;99.90
10344;DHT22;5217;43.960;10.954;2023-03-15T08:07:02;15.10;99.90
10344;DHT22;5217;43.960;10.954;2023-03-15T08:09:31;15.10;99.90
10344;DHT22;5217;43.960;10.954;2023-03-15T08:12:00;15.20;99.90
10344;DHT22;5217;43.960;10.954;2023-03-15T08:14:29;15.20;99.90
10344;DHT22;5217;43.960;10.954;2023-03-15T08:17:00;15.20;99.90
10344;DHT22;5217;43.960;10.954;2023-03-15T08:19:28;15.30;99.90
10344;DHT22;5217;43.960;10.954;2023-03-15T08:21:56;15.30;99.90
10344;DHT22;5217;43.960;10.954;2023-03-15T08:24:25;15.30;99.90
10344;DHT22;5217;43.960;10.954;2023-03-15T08:26:53;15.40;99.90
10344;DHT22;5217;43.960;10.954;2023-03-15T08:29:21;15.40;99.90
10344;DHT22;5217;43.960;10.954;2023-03-15T08:31:50;15.40;99.90
10344;DHT22;5217;43.960;10.954;2023-03-15T08:34:19;15.50;99.90
10344;DHT22;5217;43.960;10.954;2023-03-15T08:36:48;15.50;99.90
10344;DHT22;5217;43.960;10.954;2023-03-15T08:39:17;15.50;99.90
10344;DHT22;5217;43.960;10.954;2023-03-15T08:41:45;15.60;99.90
10344;DHT22;5217;43.960;10.954;2023-03-15T08:44:16;15.60;99.90
10344;DHT22;5217;43.960;10.954;2023-03-15T08:46:44;15.60;99.90
10344;DHT22;5217;43.960;10.954;2023-03-15T08:49:13;15.60;99.90
10344;DHT22;5217;43.960;10.954;2023-03-15T08:51:43;15.60;99.90
10344;DHT22;5217;43.960;10.954;2023-03-15T08:54:11;15.70;99.90
10344;DHT22;5217;43.960;10.954;2023-03-15T08:56:40;15.70;99.90
10344;DHT22;5217;43.960;10.954;2023-03-15T08:59:09;15.70;99.90
10344;DHT22;5217;43.960;10.954;2023-03-15T09:01:48;15.80;99.90
10344;DHT22;5217;43.960;10.954;2023-03-15T09:04:16;15.90;99.90
10344;DHT22;5217;43.960;10.954;2023-03-15T09:06:46;15.90;99.90
10344;DHT22;5217;43.960;10.954;2023-03-15T09:09:14;15.90;99.90
10344;DHT22;5217;43.960;10.954;2023-03-15T09:11:43;15.90;99.90
10344;DHT22;5217;43.960;10.954;2023-03-15T09:14:12;16.00;99.90
10344;DHT22;5217;43.960;10.954;2023-03-15T09:16:40;16.00;99.50
10344;DHT22;5217;43.960;10.954;2023-03-15T09:19:09;16.00;99.30
10344;DHT22;5217;43.960;10.954;2023-03-15T09:21:37;16.10;99.50
10344;DHT22;5217;43.960;10.954;2023-03-15T09:24:07;16.10;99.00
10344;DHT22;5217;43.960;10.954;2023-03-15T09:26:35;16.10;98.70
10344;DHT22;5217;43.960;10.954;2023-03-15T09:29:04;16.20;98.50
10344;DHT22;5217;43.960;10.954;2023-03-15T09:31:36;16.20;98.40
10344;DHT22;5217;43.960;10.954;2023-03-15T09:34:05;16.20;98.30
10344;DHT22;5217;43.960;10.954;2023-03-15T09:36:33;16.20;98.00
10344;DHT22;5217;43.960;10.954;2023-03-15T09:39:01;16.30;97.30
10344;DHT22;5217;43.960;10.954;2023-03-15T09:41:40;16.30;96.90
10344;DHT22;5217;43.960;10.954;2023-03-15T09:44:15;16.40;95.50
10344;DHT22;5217;43.960;10.954;2023-03-15T09:47:03;16.40;94.90
10344;DHT22;5217;43.960;10.954;2023-03-15T09:49:39;16.40;94.90
10344;DHT22;5217;43.960;10.954;2023-03-15T09:52:16;16.50;94.60
10344;DHT22;5217;43.960;10.954;2023-03-15T09:54:51;16.50;92.70
10344;DHT22;5217;43.960;10.954;2023-03-15T09:57:32;16.60;92.20
10344;DHT22;5217;43.960;10.954;2023-03-15T10:00:04;16.60;92.20
10344;DHT22;5217;43.960;10.954;2023-03-15T10:02:42;16.70;92.80
10344;DHT22;5217;43.960;10.954;2023-03-15T10:05:17;16.80;93.30
10344;DHT22;5217;43.960;10.954;2023-03-15T10:07:46;16.80;91.10
10344;DHT22;5217;43.960;10.954;2023-03-15T10:10:16;16.90;90.10
10344;DHT22;5217;43.960;10.954;2023-03-15T10:12:53;16.90;87.90
10344;DHT22;5217;43.960;10.954;2023-03-15T10:15:31;17.00;85.70
10344;DHT22;5217;43.960;10.954;2023-03-15T10:18:13;17.10;83.90
10344;DHT22;5217;43.960;10.954;2023-03-15T10:20:46;17.10;81.00
10344;DHT22;5217;43.960;10.954;2023-03-15T10:23:19;17.20;79.60
10344;DHT22;5217;43.960;10.954;2023-03-15T10:25:51;17.30;79.50
10344;DHT22;5217;43.960;10.954;2023-03-15T10:28:25;17.30;79.10
10344;DHT22;5217;43.960;10.954;2023-03-15T10:30:59;17.40;79.30
10344;DHT22;5217;43.960;10.954;2023-03-15T10:33:30;17.50;78.30
10344;DHT22;5217;43.960;10.954;2023-03-15T10:36:00;17.60;76.30
10344;DHT22;5217;43.960;10.954;2023-03-15T10:38:37;17.60;76.00
10344;DHT22;5217;43.960;10.954;2023-03-15T10:41:10;17.70;75.50
10344;DHT22;5217;43.960;10.954;2023-03-15T10:43:56;17.80;75.60
10344;DHT22;5217;43.960;10.954;2023-03-15T10:46:25;17.90;74.10
10344;DHT22;5217;43.960;10.954;2023-03-15T10:48:57;17.90;74.00
10344;DHT22;5217;43.960;10.954;2023-03-15T10:51:28;18.00;73.00
10344;DHT22;5217;43.960;10.954;2023-03-15T10:53:59;18.10;72.70
10344;DHT22;5217;43.960;10.954;2023-03-15T10:56:31;18.20;72.10
10344;DHT22;5217;43.960;10.954;2023-03-15T10:59:14;18.20;71.60
10344;DHT22;5217;43.960;10.954;2023-03-15T11:01:46;18.30;70.40
10344;DHT22;5217;43.960;10.954;2023-03-15T11:04:17;18.40;67.20
10344;DHT22;5217;43.960;10.954;2023-03-15T11:06:48;18.50;67.20
10344;DHT22;5217;43.960;10.954;2023-03-15T11:09:19;18.60;67.50
10344;DHT22;5217;43.960;10.954;2023-03-15T11:11:54;18.70;68.00
10344;DHT22;5217;43.960;10.954;2023-03-15T11:14:27;18.80;68.50
10344;DHT22;5217;43.960;10.954;2023-03-15T11:17:01;18.90;69.10
10344;DHT22;5217;43.960;10.954;2023-03-15T11:19:31;19.00;68.10
10344;DHT22;5217;43.960;10.954;2023-03-15T11:22:01;19.10;67.70
10344;DHT22;5217;43.960;10.954;2023-03-15T11:24:31;19.20;68.00
10344;DHT22;5217;43.960;10.954;2023-03-15T11:27:03;19.30;67.70
10344;DHT22;5217;43.960;10.954;2023-03-15T11:29:45;19.40;67.40
10344;DHT22;5217;43.960;10.954;2023-03-15T11:32:17;19.50;65.60
10344;DHT22;5217;43.960;10.954;2023-03-15T11:34:52;19.60;62.90
10344;DHT22;5217;43.960;10.954;2023-03-15T11:37:27;19.70;61.10
10344;DHT22;5217;43.960;10.954;2023-03-15T11:40:01;19.80;60.40
10344;DHT22;5217;43.960;10.954;2023-03-15T11:42:43;20.00;60.70
10344;DHT22;5217;43.960;10.954;2023-03-15T11:45:22;20.10;59.70
10344;DHT22;5217;43.960;10.954;2023-03-15T11:47:55;20.30;60.50
10344;DHT22;5217;43.960;10.954;2023-03-15T11:50:25;20.40;60.00
10344;DHT22;5217;43.960;10.954;2023-03-15T11:52:53;20.60;60.90
10344;DHT22;5217;43.960;10.954;2023-03-15T11:55:24;20.80;61.70
10344;DHT22;5217;43.960;10.954;2023-03-15T11:57:53;21.00;60.10
10344;DHT22;5217;43.960;10.954;2023-03-15T12:00:49;21.20;56.90
10344;DHT22;5217;43.960;10.954;2023-03-15T12:03:34;21.50;56.20
10344;DHT22;5217;43.960;10.954;2023-03-15T12:08:53;22.10;56.00
10344;DHT22;5217;43.960;10.954;2023-03-15T12:11:39;22.50;55.30
10344;DHT22;5217;43.960;10.954;2023-03-15T12:14:26;22.80;53.90
10344;DHT22;5217;43.960;10.954;2023-03-15T12:20:10;23.60;52.30
10344;DHT22;5217;43.960;10.954;2023-03-15T12:22:42;23.90;53.40
10344;DHT22;5217;43.960;10.954;2023-03-15T12:25:15;24.20;52.40
10344;DHT22;5217;43.960;10.954;2023-03-15T12:27:47;24.60;51.80
10344;DHT22;5217;43.960;10.954;2023-03-15T12:30:21;24.90;50.80
10344;DHT22;5217;43.960;10.954;2023-03-15T12:32:52;25.20;50.20
10344;DHT22;5217;43.960;10.954;2023-03-15T12:35:28;25.50;50.10
10344;DHT22;5217;43.960;10.954;2023-03-15T12:37:58;25.80;48.80
10344;DHT22;5217;43.960;10.954;2023-03-15T12:40:50;26.10;47.80
10344;DHT22;5217;43.960;10.954;2023-03-15T12:43:37;26.40;46.50
10344;DHT22;5217;43.960;10.954;2023-03-15T12:46:06;26.80;48.00
10344;DHT22;5217;43.960;10.954;2023-03-15T12:48:35;27.00;47.40
10344;DHT22;5217;43.960;10.954;2023-03-15T12:51:09;27.30;47.40
10344;DHT22;5217;43.960;10.954;2023-03-15T12:53:47;27.50;46.30
10344;DHT22;5217;43.960;10.954;2023-03-15T12:56:46;27.80;46.20
10344;DHT22;5217;43.960;10.954;2023-03-15T12:59:24;28.10;46.40
10344;DHT22;5217;43.960;10.954;2023-03-15T13:01:55;28.40;45.30
10344;DHT22;5217;43.960;10.954;2023-03-15T13:04:25;28.50;44.90
10344;DHT22;5217;43.960;10.954;2023-03-15T13:07:22;28.80;44.80
10344;DHT22;5217;43.960;10.954;2023-03-15T13:10:15;29.10;44.40
10344;DHT22;5217;43.960;10.954;2023-03-15T13:12:54;29.30;45.50
10344;DHT22;5217;43.960;10.954;2023-03-15T13:15:32;29.50;46.70
10344;DHT22;5217;43.960;10.954;2023-03-15T13:18:08;29.60;47.10
10344;DHT22;5217;43.960;10.954;2023-03-15T13:20:55;29.70;47.50
10344;DHT22;5217;43.960;10.954;2023-03-15T13:23:28;29.70;47.20
10344;DHT22;5217;43.960;10.954;2023-03-15T13:26:07;29.30;47.00
10344;DHT22;5217;43.960;10.954;2023-03-15T13:28:46;28.70;46.80
10344;DHT22;5217;43.960;10.954;2023-03-15T13:31:19;28.10;46.70
10344;DHT22;5217;43.960;10.954;2023-03-15T13:33:49;27.70;47.40
10344;DHT22;5217;43.960;10.954;2023-03-15T13:36:25;27.30;48.10
10344;DHT22;5217;43.960;10.954;2023-03-15T13:38:56;27.50;49.10
10344;DHT22;5217;43.960;10.954;2023-03-15T13:41:26;27.70;49.20
10344;DHT22;5217;43.960;10.954;2023-03-15T13:43:57;28.10;48.70
10344;DHT22;5217;43.960;10.954;2023-03-15T13:46:29;28.60;49.10
10344;DHT22;5217;43.960;10.954;2023-03-15T13:48:59;29.00;48.20
10344;DHT22;5217;43.960;10.954;2023-03-15T13:51:30;29.40;47.80
10344;DHT22;5217;43.960;10.954;2023-03-15T13:54:03;29.70;47.20
10344;DHT22;5217;43.960;10.954;2023-03-15T13:56:34;29.90;47.10
10344;DHT22;5217;43.960;10.954;2023-03-15T13:59:15;30.20;47.60
10344;DHT22;5217;43.960;10.954;2023-03-15T14:01:44;30.40;45.80
10344;DHT22;5217;43.960;10.954;2023-03-15T14:04:15;30.60;45.40
10344;DHT22;5217;43.960;10.954;2023-03-15T14:06:44;30.90;45.40
10344;DHT22;5217;43.960;10.954;2023-03-15T14:09:19;31.10;45.40
10344;DHT22;5217;43.960;10.954;2023-03-15T14:12:00;31.30;44.10
10344;DHT22;5217;43.960;10.954;2023-03-15T14:14:30;31.50;44.80
10344;DHT22;5217;43.960;10.954;2023-03-15T14:16:59;31.60;44.00
10344;DHT22;5217;43.960;10.954;2023-03-15T14:19:33;31.70;42.90
10344;DHT22;5217;43.960;10.954;2023-03-15T14:22:11;31.80;42.50
10344;DHT22;5217;43.960;10.954;2023-03-15T14:24:45;31.90;42.00
10344;DHT22;5217;43.960;10.954;2023-03-15T14:27:15;32.00;40.50
10344;DHT22;5217;43.960;10.954;2023-03-15T14:29:46;32.00;39.40
10344;DHT22;5217;43.960;10.954;2023-03-15T14:32:25;32.10;41.00
10344;DHT22;5217;43.960;10.954;2023-03-15T14:34:59;32.20;41.30
10344;DHT22;5217;43.960;10.954;2023-03-15T14:37:33;32.20;41.80
10344;DHT22;5217;43.960;10.954;2023-03-15T14:40:14;32.30;41.90
10344;DHT22;5217;43.960;10.954;2023-03-15T14:42:43;32.40;41.80
10344;DHT22;5217;43.960;10.954;2023-03-15T14:45:13;32.30;42.90
10344;DHT22;5217;43.960;10.954;2023-03-15T14:47:44;32.30;43.70
10344;DHT22;5217;43.960;10.954;2023-03-15T14:50:28;32.30;44.50
10344;DHT22;5217;43.960;10.954;2023-03-15T14:52:58;32.30;45.10
10344;DHT22;5217;43.960;10.954;2023-03-15T14:55:30;32.30;44.30
10344;DHT22;5217;43.960;10.954;2023-03-15T14:58:01;32.30;44.70
10344;DHT22;5217;43.960;10.954;2023-03-15T15:00:31;32.30;45.60
10344;DHT22;5217;43.960;10.954;2023-03-15T15:03:00;32.30;46.50
10344;DHT22;5217;43.960;10.954;2023-03-15T15:05:31;32.20;46.50
10344;DHT22;5217;43.960;10.954;2023-03-15T15:08:02;32.10;46.40
10344;DHT22;5217;43.960;10.954;2023-03-15T15:10:33;32.00;45.80
10344;DHT22;5217;43.960;10.954;2023-03-15T15:13:03;31.80;45.00
10344;DHT22;5217;43.960;10.954;2023-03-15T15:15:33;31.50;45.00
10344;DHT22;5217;43.960;10.954;2023-03-15T15:18:21;31.20;45.70
10344;DHT22;5217;43.960;10.954;2023-03-15T15:20:50;30.80;45.60
10344;DHT22;5217;43.960;10.954;2023-03-15T15:23:24;30.40;45.30
10344;DHT22;5217;43.960;10.954;2023-03-15T15:25:56;30.10;45.60
10344;DHT22;5217;43.960;10.954;2023-03-15T15:28:25;30.00;46.00
10344;DHT22;5217;43.960;10.954;2023-03-15T15:31:02;29.80;45.80
10344;DHT22;5217;43.960;10.954;2023-03-15T15:33:31;29.50;45.80
10344;DHT22;5217;43.960;10.954;2023-03-15T15:36:00;29.30;46.30
10344;DHT22;5217;43.960;10.954;2023-03-15T15:38:31;29.10;46.30
10344;DHT22;5217;43.960;10.954;2023-03-15T15:41:13;29.00;46.60
10344;DHT22;5217;43.960;10.954;2023-03-15T15:43:42;28.90;47.20
10344;DHT22;5217;43.960;10.954;2023-03-15T15:46:11;28.60;46.20
10344;DHT22;5217;43.960;10.954;2023-03-15T15:48:40;28.40;46.10
10344;DHT22;5217;43.960;10.954;2023-03-15T15:51:22;28.10;46.30
10344;DHT22;5217;43.960;10.954;2023-03-15T15:53:52;27.80;46.50
10344;DHT22;5217;43.960;10.954;2023-03-15T15:56:28;27.70;46.20
10344;DHT22;5217;43.960;10.954;2023-03-15T15:58:58;27.60;46.10
10344;DHT22;5217;43.960;10.954;2023-03-15T16:01:27;27.50;46.00